createdAt,value
2022-12-11T00:00:31.706Z,100821.07
2022-12-11T00:02:59.439Z,100813.78
2022-12-11T00:05:27.155Z,100806.55
2022-12-11T00:07:54.979Z,100798.41
2022-12-11T00:10:22.768Z,100811.30
2022-12-11T00:12:50.392Z,100801.29
2022-12-11T00:15:18.187Z,100795.21
2022-12-11T00:17:45.849Z,100801.62
2022-12-11T00:20:13.582Z,100803.16
2022-12-11T00:22:41.293Z,100807.08
2022-12-11T00:25:10.037Z,100805.05
2022-12-11T00:27:37.921Z,100799.85
2022-12-11T00:30:06.535Z,100803.16
2022-12-11T00:32:37.553Z,100805.31
2022-12-11T00:35:05.833Z,100817.05
2022-12-11T00:37:33.679Z,100816.27
2022-12-11T00:40:01.424Z,100816.33
2022-12-11T00:42:29.110Z,100813.20
2022-12-11T00:44:57.512Z,100814.44
2022-12-11T00:47:25.245Z,100818.91
2022-12-11T00:49:53.181Z,100823.66
2022-12-11T00:52:20.889Z,100822.88
2022-12-11T00:54:48.562Z,100823.66
2022-12-11T00:57:16.178Z,100823.27
2022-12-11T00:59:43.851Z,100821.30
2022-12-11T01:02:11.502Z,100826.93
2022-12-11T01:04:39.348Z,100822.09
2022-12-11T01:07:07.045Z,100822.09
2022-12-11T01:09:53.031Z,100835.76
2022-12-11T01:12:20.745Z,100825.39
2022-12-11T01:14:48.393Z,100826.63
2022-12-11T01:17:16.585Z,100830.30
2022-12-11T01:19:44.250Z,100830.30
2022-12-11T01:22:12.686Z,100826.27
2022-12-11T01:24:40.384Z,100832.29
2022-12-11T01:27:08.010Z,100834.35
2022-12-11T01:29:35.602Z,100838.38
2022-12-11T01:32:03.288Z,100839.16
2022-12-11T01:34:31.769Z,100840.37
2022-12-11T01:36:59.421Z,100832.32
2022-12-11T01:39:27.129Z,100833.56
2022-12-11T01:41:59.185Z,100835.98
2022-12-11T01:44:26.796Z,100839.22
2022-12-11T01:46:55.079Z,100842.03
2022-12-11T01:49:27.244Z,100841.67
2022-12-11T01:52:08.850Z,100840.46
2022-12-11T01:54:36.783Z,100837.29
2022-12-11T01:57:09.221Z,100846.09
2022-12-11T01:59:41.079Z,100848.90
2022-12-11T02:02:15.448Z,100852.17
2022-12-11T02:04:45.339Z,100847.33
2022-12-11T02:07:13.212Z,100859.76
2022-12-11T02:09:44.265Z,100860.61
2022-12-11T02:12:23.451Z,100856.20
2022-12-11T02:15:18.851Z,100857.44
2022-12-11T02:18:12.865Z,100855.41
2022-12-11T02:20:49.026Z,100859.10
2022-12-11T02:23:54.450Z,100868.00
2022-12-11T02:26:27.829Z,100872.09
2022-12-11T02:28:58.486Z,100864.07
2022-12-11T02:31:37.335Z,100859.70
2022-12-11T02:34:33.060Z,100864.89
2022-12-11T02:37:06.618Z,100864.53
2022-12-11T02:39:37.632Z,100859.76
2022-12-11T02:42:06.199Z,100862.96
2022-12-11T02:44:35.349Z,100867.37
2022-12-11T02:47:06.069Z,100863.78
2022-12-11T02:49:35.108Z,100860.15
2022-12-11T02:52:06.325Z,100868.95
2022-12-11T02:54:38.049Z,100866.59
2022-12-11T02:57:31.148Z,100871.01
2022-12-11T02:59:58.843Z,100868.23
2022-12-11T03:02:26.693Z,100871.37
2022-12-11T03:04:55.099Z,100863.71
2022-12-11T03:07:26.447Z,100864.53
2022-12-11T03:09:54.682Z,100862.51
2022-12-11T03:12:30.315Z,100860.12
2022-12-11T03:15:01.797Z,100858.91
2022-12-11T03:17:37.981Z,100862.18
2022-12-11T03:20:16.113Z,100868.26
2022-12-11T03:22:43.662Z,100861.46
2022-12-11T03:25:18.963Z,100864.66
2022-12-11T03:27:57.757Z,100861.46
2022-12-11T03:30:28.141Z,100857.05
2022-12-11T19:25:48.173Z,100760.74
2022-12-11T19:28:16.617Z,100763.55
2022-12-11T19:30:49.863Z,100765.58
2022-12-11T19:33:18.068Z,100765.58
2022-12-11T19:35:46.160Z,100765.62
2022-12-11T19:38:14.454Z,100759.20
2022-12-11T19:40:46.228Z,100764.01
2022-12-11T19:43:13.833Z,100761.98
2022-12-11T19:45:42.636Z,100763.98
2022-12-11T19:48:10.371Z,100764.77
2022-12-11T19:50:38.102Z,100764.38
2022-12-11T19:53:05.824Z,100770.75
2022-12-11T19:55:34.091Z,100764.77
2022-12-11T19:58:01.789Z,100773.16
2022-12-11T20:00:29.655Z,100773.16
2022-12-11T20:02:57.389Z,100767.97
2022-12-11T20:05:25.213Z,100774.77
2022-12-11T20:07:53.519Z,100773.56
2022-12-11T20:10:21.284Z,100769.99
2022-12-11T20:12:49.158Z,100774.38
2022-12-11T20:15:20.655Z,100777.58
2022-12-11T20:17:48.452Z,100769.15
2022-12-11T20:20:16.145Z,100772.35
2022-12-11T20:22:43.761Z,100777.16
2022-12-11T20:25:11.693Z,100771.14
2022-12-11T20:27:40.150Z,100776.37
2022-12-11T20:30:08.333Z,100775.16
2022-12-11T20:32:38.022Z,100771.96
2022-12-11T20:35:07.271Z,100778.01
2022-12-11T20:37:36.019Z,100778.79
2022-12-11T20:40:05.317Z,100778.01
2022-12-11T20:42:34.971Z,100776.80
2022-12-11T20:45:02.675Z,100772.35
2022-12-11T20:47:30.383Z,100771.20
2022-12-11T20:49:58.053Z,100770.35
2022-12-11T20:52:25.727Z,100770.75
2022-12-11T20:54:53.511Z,100765.98
2022-12-11T20:57:21.476Z,100770.75
2022-12-11T20:59:50.622Z,100773.95
2022-12-11T21:02:18.491Z,100777.58
2022-12-11T21:04:46.193Z,100776.37
2022-12-11T21:07:13.852Z,100776.41
2022-12-11T21:09:41.583Z,100775.62
2022-12-11T21:12:09.717Z,100789.26
2022-12-11T21:14:37.438Z,100785.27
2022-12-11T21:17:05.201Z,100784.84
2022-12-11T21:19:33.269Z,100787.26
2022-12-11T21:22:01.035Z,100788.41
2022-12-11T21:24:30.141Z,100784.38
2022-12-11T21:26:59.364Z,100787.16
2022-12-11T21:29:30.383Z,100792.36
2022-12-11T21:31:59.079Z,100782.75
2022-12-11T21:34:27.255Z,100786.37
2022-12-11T21:36:57.705Z,100787.20
2022-12-11T21:39:27.219Z,100785.98
2022-12-11T21:41:55.062Z,100798.45
2022-12-11T21:47:10.971Z,100780.39
2022-12-11T21:49:38.839Z,100794.81
2022-12-11T21:52:06.587Z,100796.84
2022-12-11T21:54:34.216Z,100796.05
2022-12-11T21:57:01.953Z,100794.45
2022-12-11T21:59:30.887Z,100798.48
2022-12-11T22:01:58.736Z,100791.64
2022-12-11T22:04:26.418Z,100784.84
2022-12-11T22:06:54.491Z,100795.24
2022-12-11T22:09:22.165Z,100794.45
2022-12-11T22:11:53.805Z,100790.07
2022-12-11T22:14:25.876Z,100786.87
2022-12-11T22:16:53.588Z,100799.69
2022-12-11T22:19:21.350Z,100792.46
2022-12-11T22:21:49.033Z,100795.27
2022-12-11T22:24:16.836Z,100792.07
2022-12-11T22:26:44.442Z,100792.85
2022-12-11T22:29:12.262Z,100786.05
2022-12-11T22:31:40.009Z,100787.26
2022-12-11T22:34:07.714Z,100789.68
2022-12-11T22:36:35.357Z,100785.27
2022-12-11T22:39:03.107Z,100783.63
2022-12-11T22:41:32.763Z,100783.66
2022-12-11T22:44:00.851Z,100783.27
2022-12-11T22:46:30.617Z,100779.25
2022-12-11T22:48:59.802Z,100785.27
2022-12-11T22:51:27.611Z,100782.45
2022-12-11T22:53:55.246Z,100788.87
2022-12-11T22:56:22.874Z,100784.84
2022-12-11T22:58:50.845Z,100784.84
2022-12-11T23:01:22.546Z,100789.26
2022-12-11T23:03:50.699Z,100777.62
2022-12-11T23:06:21.291Z,100786.45
2022-12-11T23:08:49.061Z,100788.83
2022-12-11T23:11:25.132Z,100779.58
2022-12-11T23:13:53.629Z,100787.59
2022-12-11T23:16:22.853Z,100789.55
2022-12-11T23:18:50.873Z,100781.15
2022-12-11T23:21:18.762Z,100776.70
2022-12-11T23:23:46.696Z,100776.30
2022-12-11T23:26:15.784Z,100773.13
2022-12-11T23:28:43.569Z,100768.72
2022-12-11T23:31:11.623Z,100763.48
2022-12-11T23:33:39.806Z,100766.73
2022-12-11T23:36:08.017Z,100774.34
2022-12-11T23:38:35.805Z,100773.95
2022-12-11T23:41:05.018Z,100773.56
2022-12-11T23:43:32.899Z,100774.38
2022-12-11T23:46:00.699Z,100778.40
2022-12-11T23:48:28.366Z,100781.21
2022-12-11T23:51:01.223Z,100781.60
2022-12-11T23:53:29.360Z,100778.79
2022-12-11T23:55:57.421Z,100779.19
2022-12-11T23:58:25.108Z,100778.40
